sensor_id;sensor_type;location;lat;lon;timestamp;temperature;humidity
29539;DHT22;16482;51.046;4.498;2023-04-30T00:01:36;23.30;35.00
29539;DHT22;16482;51.046;4.498;2023-04-30T00:04:14;23.30;35.00
29539;DHT22;16482;51.046;4.498;2023-04-30T00:06:40;23.30;35.00
29539;DHT22;16482;51.046;4.498;2023-04-30T00:09:09;23.30;35.00
29539;DHT22;16482;51.046;4.498;2023-04-30T00:11:40;23.30;35.00
29539;DHT22;16482;51.046;4.498;2023-04-30T00:14:13;23.30;34.90
29539;DHT22;16482;51.046;4.498;2023-04-30T00:16:39;23.30;34.90
29539;DHT22;16482;51.046;4.498;2023-04-30T00:19:08;23.30;34.90
29539;DHT22;16482;51.046;4.498;2023-04-30T00:21:42;23.30;34.90
29539;DHT22;16482;51.046;4.498;2023-04-30T00:24:08;23.30;34.90
29539;DHT22;16482;51.046;4.498;2023-04-30T00:26:40;23.20;34.90
29539;DHT22;16482;51.046;4.498;2023-04-30T00:29:09;23.30;34.90
29539;DHT22;16482;51.046;4.498;2023-04-30T00:31:44;23.30;34.80
29539;DHT22;16482;51.046;4.498;2023-04-30T00:34:11;23.30;34.80
29539;DHT22;16482;51.046;4.498;2023-04-30T00:36:39;23.30;34.80
29539;DHT22;16482;51.046;4.498;2023-04-30T00:39:08;23.30;34.80
29539;DHT22;16482;51.046;4.498;2023-04-30T00:41:37;23.30;34.70
29539;DHT22;16482;51.046;4.498;2023-04-30T00:44:07;23.30;34.80
29539;DHT22;16482;51.046;4.498;2023-04-30T00:46:42;23.20;34.70
29539;DHT22;16482;51.046;4.498;2023-04-30T00:49:10;23.20;34.70
29539;DHT22;16482;51.046;4.498;2023-04-30T00:51:40;23.20;34.70
29539;DHT22;16482;51.046;4.498;2023-04-30T00:54:09;23.20;34.70
29539;DHT22;16482;51.046;4.498;2023-04-30T00:56:35;23.20;34.70
29539;DHT22;16482;51.046;4.498;2023-04-30T00:59:11;23.20;34.60
29539;DHT22;16482;51.046;4.498;2023-04-30T01:01:38;23.20;34.60
29539;DHT22;16482;51.046;4.498;2023-04-30T01:04:11;23.20;34.70
29539;DHT22;16482;51.046;4.498;2023-04-30T01:06:40;23.20;34.60
29539;DHT22;16482;51.046;4.498;2023-04-30T01:09:10;23.20;34.70
29539;DHT22;16482;51.046;4.498;2023-04-30T01:17:39;23.20;34.60
29539;DHT22;16482;51.046;4.498;2023-04-30T01:20:08;23.20;34.60
29539;DHT22;16482;51.046;4.498;2023-04-30T01:28:08;23.20;34.50
29539;DHT22;16482;51.046;4.498;2023-04-30T01:30:36;23.10;34.60
29539;DHT22;16482;51.046;4.498;2023-04-30T01:33:02;23.10;34.60
29539;DHT22;16482;51.046;4.498;2023-04-30T01:46:55;23.20;34.40
29539;DHT22;16482;51.046;4.498;2023-04-30T01:52:39;23.10;34.40
29539;DHT22;16482;51.046;4.498;2023-04-30T01:55:16;23.10;34.40
29539;DHT22;16482;51.046;4.498;2023-04-30T01:57:54;23.10;34.30
29539;DHT22;16482;51.046;4.498;2023-04-30T02:00:22;23.10;34.30
29539;DHT22;16482;51.046;4.498;2023-04-30T02:02:50;23.10;34.30
29539;DHT22;16482;51.046;4.498;2023-04-30T02:05:16;23.10;34.30
29539;DHT22;16482;51.046;4.498;2023-04-30T02:07:44;23.10;34.30
29539;DHT22;16482;51.046;4.498;2023-04-30T02:10:11;23.10;34.20
29539;DHT22;16482;51.046;4.498;2023-04-30T02:12:38;23.10;34.20
29539;DHT22;16482;51.046;4.498;2023-04-30T02:15:05;23.10;34.10
29539;DHT22;16482;51.046;4.498;2023-04-30T02:17:31;23.10;34.10
29539;DHT22;16482;51.046;4.498;2023-04-30T02:20:00;23.10;34.10
29539;DHT22;16482;51.046;4.498;2023-04-30T02:22:29;23.10;34.20
29539;DHT22;16482;51.046;4.498;2023-04-30T02:25:03;23.10;34.10
29539;DHT22;16482;51.046;4.498;2023-04-30T02:27:30;23.10;34.10
29539;DHT22;16482;51.046;4.498;2023-04-30T02:30:04;23.10;34.10
29539;DHT22;16482;51.046;4.498;2023-04-30T02:32:31;23.10;34.00
29539;DHT22;16482;51.046;4.498;2023-04-30T02:35:06;23.00;34.00
29539;DHT22;16482;51.046;4.498;2023-04-30T02:37:32;23.10;34.00
29539;DHT22;16482;51.046;4.498;2023-04-30T02:40:00;23.00;34.00
29539;DHT22;16482;51.046;4.498;2023-04-30T02:42:31;23.10;34.00
29539;DHT22;16482;51.046;4.498;2023-04-30T02:45:00;23.10;34.00
29539;DHT22;16482;51.046;4.498;2023-04-30T02:47:34;23.00;33.90
29539;DHT22;16482;51.046;4.498;2023-04-30T02:50:00;23.10;34.00
29539;DHT22;16482;51.046;4.498;2023-04-30T02:52:33;23.00;33.90
29539;DHT22;16482;51.046;4.498;2023-04-30T02:54:59;23.00;33.80
29539;DHT22;16482;51.046;4.498;2023-04-30T02:57:31;23.00;33.80
29539;DHT22;16482;51.046;4.498;2023-04-30T03:00:00;23.10;33.90
29539;DHT22;16482;51.046;4.498;2023-04-30T03:02:33;23.10;33.80
29539;DHT22;16482;51.046;4.498;2023-04-30T03:04:59;23.00;33.70
29539;DHT22;16482;51.046;4.498;2023-04-30T03:07:31;23.00;34.40
29539;DHT22;16482;51.046;4.498;2023-04-30T03:10:01;23.00;34.40
29539;DHT22;16482;51.046;4.498;2023-04-30T03:12:30;23.00;33.70
29539;DHT22;16482;51.046;4.498;2023-04-30T03:15:04;23.00;33.70
29539;DHT22;16482;51.046;4.498;2023-04-30T03:17:30;23.00;33.70
29539;DHT22;16482;51.046;4.498;2023-04-30T03:20:03;23.00;33.70
29539;DHT22;16482;51.046;4.498;2023-04-30T03:22:32;23.00;33.70
29539;DHT22;16482;51.046;4.498;2023-04-30T03:25:00;23.00;33.80
29539;DHT22;16482;51.046;4.498;2023-04-30T03:27:29;23.00;33.70
29539;DHT22;16482;51.046;4.498;2023-04-30T03:30:01;23.00;33.70
29539;DHT22;16482;51.046;4.498;2023-04-30T03:32:35;23.00;33.70
29539;DHT22;16482;51.046;4.498;2023-04-30T03:35:01;23.00;33.70
29539;DHT22;16482;51.046;4.498;2023-04-30T03:37:30;23.00;33.70
29539;DHT22;16482;51.046;4.498;2023-04-30T03:39:59;23.00;33.70
29539;DHT22;16482;51.046;4.498;2023-04-30T03:42:28;23.00;33.70
29539;DHT22;16482;51.046;4.498;2023-04-30T03:45:03;23.00;33.70
29539;DHT22;16482;51.046;4.498;2023-04-30T03:47:29;23.00;33.60
29539;DHT22;16482;51.046;4.498;2023-04-30T03:50:04;22.90;33.60
29539;DHT22;16482;51.046;4.498;2023-04-30T03:52:33;22.90;33.60
29539;DHT22;16482;51.046;4.498;2023-04-30T03:54:59;22.90;33.50
29539;DHT22;16482;51.046;4.498;2023-04-30T03:57:32;22.90;33.60
29539;DHT22;16482;51.046;4.498;2023-04-30T04:00:01;23.00;33.60
29539;DHT22;16482;51.046;4.498;2023-04-30T04:02:30;22.90;33.50
29539;DHT22;16482;51.046;4.498;2023-04-30T04:05:04;23.00;33.60
29539;DHT22;16482;51.046;4.498;2023-04-30T04:07:30;23.00;33.50
29539;DHT22;16482;51.046;4.498;2023-04-30T04:09:59;22.90;33.50
29539;DHT22;16482;51.046;4.498;2023-04-30T04:12:28;22.90;33.50
29539;DHT22;16482;51.046;4.498;2023-04-30T04:15:01;22.90;33.50
29539;DHT22;16482;51.046;4.498;2023-04-30T04:17:30;22.90;33.40
29539;DHT22;16482;51.046;4.498;2023-04-30T04:20:06;22.90;33.40
29539;DHT22;16482;51.046;4.498;2023-04-30T04:22:32;22.90;33.40
29539;DHT22;16482;51.046;4.498;2023-04-30T04:25:01;22.90;33.50
29539;DHT22;16482;51.046;4.498;2023-04-30T04:27:34;22.90;33.50
29539;DHT22;16482;51.046;4.498;2023-04-30T04:30:04;22.90;33.40
29539;DHT22;16482;51.046;4.498;2023-04-30T04:32:32;22.90;33.40
29539;DHT22;16482;51.046;4.498;2023-04-30T04:35:07;22.90;33.40
29539;DHT22;16482;51.046;4.498;2023-04-30T04:37:34;22.80;33.30
29539;DHT22;16482;51.046;4.498;2023-04-30T04:40:00;22.90;33.40
29539;DHT22;16482;51.046;4.498;2023-04-30T04:42:32;22.90;33.40
29539;DHT22;16482;51.046;4.498;2023-04-30T04:45:06;22.90;33.40
29539;DHT22;16482;51.046;4.498;2023-04-30T04:47:32;22.90;33.40
29539;DHT22;16482;51.046;4.498;2023-04-30T04:50:01;22.90;33.40
29539;DHT22;16482;51.046;4.498;2023-04-30T04:52:35;22.90;33.40
29539;DHT22;16482;51.046;4.498;2023-04-30T04:55:00;22.90;33.50
29539;DHT22;16482;51.046;4.498;2023-04-30T04:57:29;22.90;33.50
29539;DHT22;16482;51.046;4.498;2023-04-30T05:00:05;22.80;33.40
29539;DHT22;16482;51.046;4.498;2023-04-30T05:02:32;22.90;33.40
29539;DHT22;16482;51.046;4.498;2023-04-30T05:04:58;22.80;33.40
29539;DHT22;16482;51.046;4.498;2023-04-30T05:07:32;22.80;33.50
29539;DHT22;16482;51.046;4.498;2023-04-30T05:10:02;22.80;33.50
29539;DHT22;16482;51.046;4.498;2023-04-30T05:12:31;22.80;33.50
29539;DHT22;16482;51.046;4.498;2023-04-30T05:15:07;22.80;33.70
29539;DHT22;16482;51.046;4.498;2023-04-30T05:17:33;22.80;33.50
29539;DHT22;16482;51.046;4.498;2023-04-30T05:20:02;22.80;33.70
29539;DHT22;16482;51.046;4.498;2023-04-30T05:22:31;22.80;33.80
29539;DHT22;16482;51.046;4.498;2023-04-30T05:25:06;22.80;33.80
29539;DHT22;16482;51.046;4.498;2023-04-30T05:27:32;22.90;33.90
29539;DHT22;16482;51.046;4.498;2023-04-30T05:30:03;22.80;33.90
29539;DHT22;16482;51.046;4.498;2023-04-30T05:32:32;22.90;34.10
29539;DHT22;16482;51.046;4.498;2023-04-30T05:35:01;22.90;34.20
29539;DHT22;16482;51.046;4.498;2023-04-30T05:37:36;22.90;34.20
29539;DHT22;16482;51.046;4.498;2023-04-30T05:40:02;23.00;34.20
29539;DHT22;16482;51.046;4.498;2023-04-30T05:42:31;23.00;34.20
29539;DHT22;16482;51.046;4.498;2023-04-30T05:45:06;23.00;34.30
29539;DHT22;16482;51.046;4.498;2023-04-30T05:47:32;23.10;34.30
29539;DHT22;16482;51.046;4.498;2023-04-30T05:50:01;23.10;34.40
29539;DHT22;16482;51.046;4.498;2023-04-30T05:52:35;23.10;34.30
29539;DHT22;16482;51.046;4.498;2023-04-30T05:55:03;23.20;34.30
29539;DHT22;16482;51.046;4.498;2023-04-30T05:57:32;23.20;34.30
29539;DHT22;16482;51.046;4.498;2023-04-30T06:00:00;23.20;34.30
29539;DHT22;16482;51.046;4.498;2023-04-30T06:02:31;23.30;34.30
29539;DHT22;16482;51.046;4.498;2023-04-30T06:05:06;23.30;34.30
29539;DHT22;16482;51.046;4.498;2023-04-30T06:07:33;23.40;34.30
29539;DHT22;16482;51.046;4.498;2023-04-30T06:10:01;23.30;34.30
29539;DHT22;16482;51.046;4.498;2023-04-30T06:12:33;23.40;34.20
29539;DHT22;16482;51.046;4.498;2023-04-30T06:15:02;23.40;34.30
29539;DHT22;16482;51.046;4.498;2023-04-30T06:17:30;23.40;34.30
29539;DHT22;16482;51.046;4.498;2023-04-30T06:20:04;23.40;34.20
29539;DHT22;16482;51.046;4.498;2023-04-30T06:22:32;23.50;34.30
29539;DHT22;16482;51.046;4.498;2023-04-30T06:25:01;23.50;34.30
29539;DHT22;16482;51.046;4.498;2023-04-30T06:27:33;23.50;34.30
29539;DHT22;16482;51.046;4.498;2023-04-30T06:30:02;23.50;34.30
29539;DHT22;16482;51.046;4.498;2023-04-30T06:32:31;23.60;34.40
29539;DHT22;16482;51.046;4.498;2023-04-30T06:35:00;23.60;34.40
29539;DHT22;16482;51.046;4.498;2023-04-30T06:37:29;23.50;34.30
29539;DHT22;16482;51.046;4.498;2023-04-30T06:40:03;23.60;34.30
29539;DHT22;16482;51.046;4.498;2023-04-30T06:42:33;23.60;34.30
29539;DHT22;16482;51.046;4.498;2023-04-30T06:45:00;23.60;34.40
29539;DHT22;16482;51.046;4.498;2023-04-30T06:47:35;23.70;34.40
29539;DHT22;16482;51.046;4.498;2023-04-30T06:50:03;23.90;34.20
29539;DHT22;16482;51.046;4.498;2023-04-30T06:52:29;24.10;33.80
29539;DHT22;16482;51.046;4.498;2023-04-30T06:55:07;24.30;33.50
29539;DHT22;16482;51.046;4.498;2023-04-30T06:57:33;24.50;33.20
29539;DHT22;16482;51.046;4.498;2023-04-30T07:00:03;24.60;33.00
29539;DHT22;16482;51.046;4.498;2023-04-30T07:02:29;24.80;32.60
29539;DHT22;16482;51.046;4.498;2023-04-30T07:05:02;24.90;32.40
29539;DHT22;16482;51.046;4.498;2023-04-30T07:07:31;25.10;32.10
29539;DHT22;16482;51.046;4.498;2023-04-30T07:10:01;25.20;32.00
29539;DHT22;16482;51.046;4.498;2023-04-30T07:12:36;25.20;31.90
29539;DHT22;16482;51.046;4.498;2023-04-30T07:15:02;25.20;31.90
29539;DHT22;16482;51.046;4.498;2023-04-30T07:17:37;25.10;32.00
29539;DHT22;16482;51.046;4.498;2023-04-30T07:20:04;25.10;32.10
29539;DHT22;16482;51.046;4.498;2023-04-30T07:22:30;25.00;32.20
29539;DHT22;16482;51.046;4.498;2023-04-30T07:24:59;25.00;32.40
29539;DHT22;16482;51.046;4.498;2023-04-30T07:27:34;24.90;32.50
29539;DHT22;16482;51.046;4.498;2023-04-30T07:30:03;24.90;32.50
29539;DHT22;16482;51.046;4.498;2023-04-30T07:32:33;24.80;32.60
29539;DHT22;16482;51.046;4.498;2023-04-30T07:35:02;24.80;33.40
29539;DHT22;16482;51.046;4.498;2023-04-30T07:37:31;24.80;32.90
29539;DHT22;16482;51.046;4.498;2023-04-30T07:40:04;24.80;33.00
29539;DHT22;16482;51.046;4.498;2023-04-30T07:42:32;24.70;33.10
29539;DHT22;16482;51.046;4.498;2023-04-30T07:45:00;24.70;33.20
29539;DHT22;16482;51.046;4.498;2023-04-30T07:47:31;24.70;33.30
29539;DHT22;16482;51.046;4.498;2023-04-30T07:50:06;24.70;33.30
29539;DHT22;16482;51.046;4.498;2023-04-30T07:52:32;24.70;33.40
29539;DHT22;16482;51.046;4.498;2023-04-30T07:55:06;24.60;33.50
29539;DHT22;16482;51.046;4.498;2023-04-30T07:57:32;24.60;33.50
29539;DHT22;16482;51.046;4.498;2023-04-30T08:00:01;24.60;33.60
29539;DHT22;16482;51.046;4.498;2023-04-30T08:02:31;24.60;33.60
29539;DHT22;16482;51.046;4.498;2023-04-30T08:05:00;24.60;33.60
29539;DHT22;16482;51.046;4.498;2023-04-30T08:07:33;24.70;33.70
29539;DHT22;16482;51.046;4.498;2023-04-30T08:10:01;24.60;33.60
29539;DHT22;16482;51.046;4.498;2023-04-30T08:12:35;24.60;33.70
29539;DHT22;16482;51.046;4.498;2023-04-30T08:15:05;24.60;33.70
29539;DHT22;16482;51.046;4.498;2023-04-30T08:17:35;24.60;33.80
29539;DHT22;16482;51.046;4.498;2023-04-30T08:20:02;24.60;33.80
29539;DHT22;16482;51.046;4.498;2023-04-30T08:22:32;24.60;33.80
29539;DHT22;16482;51.046;4.498;2023-04-30T08:25:00;24.60;33.90
29539;DHT22;16482;51.046;4.498;2023-04-30T08:27:30;24.70;33.90
29539;DHT22;16482;51.046;4.498;2023-04-30T08:30:01;24.60;33.90
29539;DHT22;16482;51.046;4.498;2023-04-30T08:32:34;24.60;33.90
29539;DHT22;16482;51.046;4.498;2023-04-30T08:35:03;24.70;33.90
29539;DHT22;16482;51.046;4.498;2023-04-30T08:37:32;24.70;33.90
29539;DHT22;16482;51.046;4.498;2023-04-30T08:40:07;24.60;33.90
29539;DHT22;16482;51.046;4.498;2023-04-30T08:42:37;24.70;33.90
29539;DHT22;16482;51.046;4.498;2023-04-30T08:45:09;24.60;33.90
29539;DHT22;16482;51.046;4.498;2023-04-30T08:47:36;24.60;33.90
29539;DHT22;16482;51.046;4.498;2023-04-30T08:50:07;24.60;34.00
29539;DHT22;16482;51.046;4.498;2023-04-30T08:52:36;24.60;34.00
29539;DHT22;16482;51.046;4.498;2023-04-30T08:55:06;24.60;34.00
29539;DHT22;16482;51.046;4.498;2023-04-30T08:57:33;24.60;34.00
29539;DHT22;16482;51.046;4.498;2023-04-30T09:00:02;24.60;34.10
29539;DHT22;16482;51.046;4.498;2023-04-30T09:02:32;24.60;34.00
29539;DHT22;16482;51.046;4.498;2023-04-30T09:05:01;24.60;34.00
29539;DHT22;16482;51.046;4.498;2023-04-30T09:07:32;24.60;34.70
29539;DHT22;16482;51.046;4.498;2023-04-30T09:10:02;24.60;34.10
29539;DHT22;16482;51.046;4.498;2023-04-30T09:12:31;24.60;34.00
29539;DHT22;16482;51.046;4.498;2023-04-30T09:15:05;24.60;34.10
29539;DHT22;16482;51.046;4.498;2023-04-30T09:17:33;24.60;34.00
29539;DHT22;16482;51.046;4.498;2023-04-30T09:20:10;24.60;34.10
29539;DHT22;16482;51.046;4.498;2023-04-30T09:22:38;24.60;34.00
29539;DHT22;16482;51.046;4.498;2023-04-30T09:25:05;24.60;34.10
29539;DHT22;16482;51.046;4.498;2023-04-30T09:27:31;24.60;34.20
29539;DHT22;16482;51.046;4.498;2023-04-30T09:30:07;24.60;34.20
29539;DHT22;16482;51.046;4.498;2023-04-30T09:32:33;24.60;34.20
29539;DHT22;16482;51.046;4.498;2023-04-30T09:35:02;24.60;34.30
29539;DHT22;16482;51.046;4.498;2023-04-30T09:37:37;24.60;34.20
29539;DHT22;16482;51.046;4.498;2023-04-30T09:40:04;24.60;34.30
29539;DHT22;16482;51.046;4.498;2023-04-30T09:42:30;24.50;34.20
29539;DHT22;16482;51.046;4.498;2023-04-30T09:45:04;24.50;34.30
29539;DHT22;16482;51.046;4.498;2023-04-30T09:47:32;24.60;34.30
29539;DHT22;16482;51.046;4.498;2023-04-30T09:50:03;24.50;34.30
29539;DHT22;16482;51.046;4.498;2023-04-30T09:52:33;24.50;34.30
29539;DHT22;16482;51.046;4.498;2023-04-30T09:55:01;24.50;34.40
29539;DHT22;16482;51.046;4.498;2023-04-30T09:57:31;24.50;34.30
29539;DHT22;16482;51.046;4.498;2023-04-30T10:00:01;24.50;34.30
29539;DHT22;16482;51.046;4.498;2023-04-30T10:02:31;24.40;34.30
29539;DHT22;16482;51.046;4.498;2023-04-30T10:05:01;24.50;34.30
29539;DHT22;16482;51.046;4.498;2023-04-30T10:07:38;24.50;34.30
29539;DHT22;16482;51.046;4.498;2023-04-30T10:10:09;24.50;34.30
29539;DHT22;16482;51.046;4.498;2023-04-30T10:12:49;24.50;34.30
29539;DHT22;16482;51.046;4.498;2023-04-30T10:15:30;24.40;34.20
29539;DHT22;16482;51.046;4.498;2023-04-30T10:18:01;24.50;34.30
29539;DHT22;16482;51.046;4.498;2023-04-30T10:20:31;24.40;34.30
29539;DHT22;16482;51.046;4.498;2023-04-30T10:22:59;24.40;34.20
29539;DHT22;16482;51.046;4.498;2023-04-30T10:25:26;24.40;34.20
29539;DHT22;16482;51.046;4.498;2023-04-30T10:27:53;24.40;34.20
29539;DHT22;16482;51.046;4.498;2023-04-30T10:30:21;24.40;34.20
29539;DHT22;16482;51.046;4.498;2023-04-30T10:33:01;24.40;34.20
29539;DHT22;16482;51.046;4.498;2023-04-30T10:35:39;24.40;34.10
29539;DHT22;16482;51.046;4.498;2023-04-30T10:38:23;24.40;34.10
29539;DHT22;16482;51.046;4.498;2023-04-30T10:40:54;24.40;34.10
29539;DHT22;16482;51.046;4.498;2023-04-30T10:43:26;24.30;34.70
29539;DHT22;16482;51.046;4.498;2023-04-30T10:45:56;24.40;34.10
29539;DHT22;16482;51.046;4.498;2023-04-30T10:48:23;24.40;34.10
29539;DHT22;16482;51.046;4.498;2023-04-30T10:50:58;24.30;33.90
29539;DHT22;16482;51.046;4.498;2023-04-30T10:53:24;24.40;33.90
29539;DHT22;16482;51.046;4.498;2023-04-30T10:55:56;24.30;33.90
29539;DHT22;16482;51.046;4.498;2023-04-30T10:58:31;24.40;33.90
29539;DHT22;16482;51.046;4.498;2023-04-30T11:01:04;24.30;33.80
29539;DHT22;16482;51.046;4.498;2023-04-30T11:03:32;24.30;33.70
29539;DHT22;16482;51.046;4.498;2023-04-30T11:06:00;24.30;33.70
29539;DHT22;16482;51.046;4.498;2023-04-30T11:08:35;24.20;33.60
29539;DHT22;16482;51.046;4.498;2023-04-30T11:11:02;24.30;33.60
29539;DHT22;16482;51.046;4.498;2023-04-30T11:13:40;24.30;33.60
29539;DHT22;16482;51.046;4.498;2023-04-30T11:16:09;24.30;33.50
29539;DHT22;16482;51.046;4.498;2023-04-30T11:18:45;24.30;33.50
29539;DHT22;16482;51.046;4.498;2023-04-30T11:21:12;24.30;33.40
29539;DHT22;16482;51.046;4.498;2023-04-30T11:23:42;24.30;33.30
29539;DHT22;16482;51.046;4.498;2023-04-30T11:26:09;24.20;33.20
29539;DHT22;16482;51.046;4.498;2023-04-30T11:28:36;24.20;33.20
29539;DHT22;16482;51.046;4.498;2023-04-30T11:31:03;24.20;33.10
29539;DHT22;16482;51.046;4.498;2023-04-30T11:33:31;24.20;33.00
29539;DHT22;16482;51.046;4.498;2023-04-30T11:35:59;24.20;33.00
29539;DHT22;16482;51.046;4.498;2023-04-30T11:38:28;24.20;33.00
29539;DHT22;16482;51.046;4.498;2023-04-30T11:40:56;24.20;32.90
29539;DHT22;16482;51.046;4.498;2023-04-30T11:43:29;24.20;32.80
29539;DHT22;16482;51.046;4.498;2023-04-30T11:46:02;24.20;32.80
29539;DHT22;16482;51.046;4.498;2023-04-30T11:48:30;24.20;32.80
29539;DHT22;16482;51.046;4.498;2023-04-30T11:50:56;24.20;32.80
29539;DHT22;16482;51.046;4.498;2023-04-30T11:53:27;24.20;32.70
29539;DHT22;16482;51.046;4.498;2023-04-30T11:55:54;24.20;32.70
29539;DHT22;16482;51.046;4.498;2023-04-30T11:58:20;24.20;32.70
29539;DHT22;16482;51.046;4.498;2023-04-30T12:00:59;24.20;32.70
29539;DHT22;16482;51.046;4.498;2023-04-30T12:03:25;24.20;32.50
29539;DHT22;16482;51.046;4.498;2023-04-30T12:05:51;24.20;32.60
29539;DHT22;16482;51.046;4.498;2023-04-30T12:08:25;24.20;32.60
29539;DHT22;16482;51.046;4.498;2023-04-30T12:10:51;24.20;32.50
29539;DHT22;16482;51.046;4.498;2023-04-30T12:13:24;24.20;32.50
29539;DHT22;16482;51.046;4.498;2023-04-30T12:15:59;24.20;32.40
29539;DHT22;16482;51.046;4.498;2023-04-30T12:18:26;24.10;32.30
29539;DHT22;16482;51.046;4.498;2023-04-30T12:20:52;24.10;32.30
29539;DHT22;16482;51.046;4.498;2023-04-30T12:23:27;24.10;32.50
29539;DHT22;16482;51.046;4.498;2023-04-30T12:25:52;24.00;32.50
29539;DHT22;16482;51.046;4.498;2023-04-30T12:28:22;24.00;32.50
29539;DHT22;16482;51.046;4.498;2023-04-30T12:30:56;24.10;32.30
29539;DHT22;16482;51.046;4.498;2023-04-30T12:33:23;24.10;32.20
29539;DHT22;16482;51.046;4.498;2023-04-30T12:35:52;24.10;32.20
29539;DHT22;16482;51.046;4.498;2023-04-30T12:38:26;24.00;32.00
29539;DHT22;16482;51.046;4.498;2023-04-30T12:40:52;24.00;32.00
29539;DHT22;16482;51.046;4.498;2023-04-30T12:43:23;24.00;32.00
29539;DHT22;16482;51.046;4.498;2023-04-30T12:45:58;24.00;31.90
29539;DHT22;16482;51.046;4.498;2023-04-30T12:48:25;24.10;32.10
29539;DHT22;16482;51.046;4.498;2023-04-30T12:50:57;24.00;32.00
29539;DHT22;16482;51.046;4.498;2023-04-30T12:53:24;24.10;32.00
29539;DHT22;16482;51.046;4.498;2023-04-30T12:56:13;24.00;31.90
29539;DHT22;16482;51.046;4.498;2023-04-30T12:58:42;24.10;32.00
29539;DHT22;16482;51.046;4.498;2023-04-30T13:01:17;24.10;32.10
29539;DHT22;16482;51.046;4.498;2023-04-30T13:03:44;24.10;32.10
29539;DHT22;16482;51.046;4.498;2023-04-30T13:06:10;24.00;32.10
29539;DHT22;16482;51.046;4.498;2023-04-30T13:08:36;24.00;32.10
29539;DHT22;16482;51.046;4.498;2023-04-30T13:11:02;24.10;32.10
29539;DHT22;16482;51.046;4.498;2023-04-30T13:13:28;24.10;32.10
29539;DHT22;16482;51.046;4.498;2023-04-30T13:15:54;24.00;32.10
29539;DHT22;16482;51.046;4.498;2023-04-30T13:18:23;24.00;32.10
29539;DHT22;16482;51.046;4.498;2023-04-30T13:20:52;24.10;32.00
29539;DHT22;16482;51.046;4.498;2023-04-30T13:23:20;24.00;32.00
29539;DHT22;16482;51.046;4.498;2023-04-30T13:25:55;24.10;32.10
29539;DHT22;16482;51.046;4.498;2023-04-30T13:28:21;24.00;32.00
29539;DHT22;16482;51.046;4.498;2023-04-30T13:30:50;24.00;32.00
29539;DHT22;16482;51.046;4.498;2023-04-30T13:33:34;24.00;32.10
29539;DHT22;16482;51.046;4.498;2023-04-30T13:36:00;24.00;32.00
29539;DHT22;16482;51.046;4.498;2023-04-30T13:38:26;24.00;32.00
29539;DHT22;16482;51.046;4.498;2023-04-30T13:40:55;24.00;32.10
29539;DHT22;16482;51.046;4.498;2023-04-30T13:43:21;24.00;32.10
29539;DHT22;16482;51.046;4.498;2023-04-30T13:45:56;24.00;32.10
29539;DHT22;16482;51.046;4.498;2023-04-30T13:48:23;24.00;32.00
29539;DHT22;16482;51.046;4.498;2023-04-30T13:50:53;24.00;32.10
29539;DHT22;16482;51.046;4.498;2023-04-30T13:53:22;24.00;32.10
29539;DHT22;16482;51.046;4.498;2023-04-30T13:55:55;24.00;32.10
29539;DHT22;16482;51.046;4.498;2023-04-30T13:58:24;24.00;32.20
29539;DHT22;16482;51.046;4.498;2023-04-30T14:00:50;23.90;32.20
29539;DHT22;16482;51.046;4.498;2023-04-30T14:03:25;23.90;32.40
29539;DHT22;16482;51.046;4.498;2023-04-30T14:05:51;24.00;32.50
29539;DHT22;16482;51.046;4.498;2023-04-30T14:08:20;24.00;32.40
29539;DHT22;16482;51.046;4.498;2023-04-30T14:10:53;24.00;32.40
29539;DHT22;16482;51.046;4.498;2023-04-30T14:13:22;24.00;32.30
29539;DHT22;16482;51.046;4.498;2023-04-30T14:15:54;24.00;32.30
29539;DHT22;16482;51.046;4.498;2023-04-30T14:18:20;24.00;32.20
29539;DHT22;16482;51.046;4.498;2023-04-30T14:20:52;24.00;32.30
29539;DHT22;16482;51.046;4.498;2023-04-30T14:23:21;24.00;32.20
29539;DHT22;16482;51.046;4.498;2023-04-30T14:25:52;24.00;32.10
29539;DHT22;16482;51.046;4.498;2023-04-30T14:28:21;24.00;32.20
29539;DHT22;16482;51.046;4.498;2023-04-30T14:30:54;24.00;32.20
29539;DHT22;16482;51.046;4.498;2023-04-30T14:33:22;24.00;32.10
29539;DHT22;16482;51.046;4.498;2023-04-30T14:35:57;24.00;32.20
29539;DHT22;16482;51.046;4.498;2023-04-30T14:38:25;24.00;32.10
29539;DHT22;16482;51.046;4.498;2023-04-30T14:40:51;24.00;32.20
29539;DHT22;16482;51.046;4.498;2023-04-30T14:43:24;24.00;32.90
29539;DHT22;16482;51.046;4.498;2023-04-30T14:45:53;24.00;32.20
29539;DHT22;16482;51.046;4.498;2023-04-30T14:48:21;24.00;32.20
29539;DHT22;16482;51.046;4.498;2023-04-30T14:50:55;24.00;32.30
29539;DHT22;16482;51.046;4.498;2023-04-30T14:53:23;24.00;32.30
29539;DHT22;16482;51.046;4.498;2023-04-30T14:55:52;24.00;32.30
29539;DHT22;16482;51.046;4.498;2023-04-30T14:58:24;24.00;32.30
29539;DHT22;16482;51.046;4.498;2023-04-30T15:00:53;24.00;32.30
29539;DHT22;16482;51.046;4.498;2023-04-30T15:03:21;24.00;32.30
29539;DHT22;16482;51.046;4.498;2023-04-30T15:05:55;24.00;32.30
29539;DHT22;16482;51.046;4.498;2023-04-30T15:08:21;24.00;32.30
29539;DHT22;16482;51.046;4.498;2023-04-30T15:10:56;24.00;32.30
29539;DHT22;16482;51.046;4.498;2023-04-30T15:13:22;24.10;32.40
29539;DHT22;16482;51.046;4.498;2023-04-30T15:15:57;24.00;32.30
29539;DHT22;16482;51.046;4.498;2023-04-30T15:18:23;24.00;32.20
29539;DHT22;16482;51.046;4.498;2023-04-30T15:20:52;24.00;32.30
29539;DHT22;16482;51.046;4.498;2023-04-30T15:23:20;24.00;32.90
29539;DHT22;16482;51.046;4.498;2023-04-30T15:25:54;24.00;32.20
29539;DHT22;16482;51.046;4.498;2023-04-30T15:28:21;24.00;32.10
29539;DHT22;16482;51.046;4.498;2023-04-30T15:30:51;24.00;32.20
29539;DHT22;16482;51.046;4.498;2023-04-30T15:33:26;24.00;32.30
29539;DHT22;16482;51.046;4.498;2023-04-30T15:35:53;24.00;32.40
29539;DHT22;16482;51.046;4.498;2023-04-30T15:38:22;24.00;32.50
29539;DHT22;16482;51.046;4.498;2023-04-30T15:40:57;24.00;32.50
29539;DHT22;16482;51.046;4.498;2023-04-30T15:43:23;23.90;32.50
29539;DHT22;16482;51.046;4.498;2023-04-30T15:45:52;23.90;32.60
29539;DHT22;16482;51.046;4.498;2023-04-30T15:48:26;23.90;32.70
29539;DHT22;16482;51.046;4.498;2023-04-30T15:50:53;23.90;32.80
29539;DHT22;16482;51.046;4.498;2023-04-30T15:53:28;23.90;32.70
29539;DHT22;16482;51.046;4.498;2023-04-30T15:55:54;23.90;32.80
29539;DHT22;16482;51.046;4.498;2023-04-30T15:58:24;23.90;32.70
29539;DHT22;16482;51.046;4.498;2023-04-30T16:00:52;23.80;32.70
29539;DHT22;16482;51.046;4.498;2023-04-30T16:03:23;23.80;32.70
29539;DHT22;16482;51.046;4.498;2023-04-30T16:05:54;23.90;32.70
29539;DHT22;16482;51.046;4.498;2023-04-30T16:08:23;23.80;32.70
29539;DHT22;16482;51.046;4.498;2023-04-30T16:10:58;23.80;32.70
29539;DHT22;16482;51.046;4.498;2023-04-30T16:13:25;23.80;32.80